This is the latest recevied weather packets stored in our database for station/object OM1PU-6. If no packets are shown the sender has not sent any weather packets the latest 10 day(s).
| Time | Temp. | Humidity | Pressure | Rain* | Wind** | Luminosity | Snow |
|---|---|---|---|---|---|---|---|
| 1777686495 | 8.33° C | 83% | 1036 hPa | 0 mm | - | - | - |
| 1777685594 | 7.22° C | 86% | 1035.8 hPa | 0 mm | - | - | - |
| 1777684694 | 7.78° C | 84% | 1035.9 hPa | 0 mm | - | - | - |
| 1777683795 | 7.78° C | 83% | 1035.7 hPa | 0 mm | - | - | - |
| 1777682895 | 7.78° C | 83% | 1035.9 hPa | 0 mm | - | - | - |
| 1777681994 | 7.78° C | 83% | 1035.9 hPa | 0 mm | - | - | - |
| 1777681094 | 8.33° C | 83% | 1035.9 hPa | 0 mm | - | - | - |
| 1777680194 | 8.33° C | 82% | 1036.1 hPa | 0 mm | - | - | - |
| 1777679294 | 8.89° C | 82% | 1036.2 hPa | 0 mm | - | - | - |
| 1777678394 | 8.89° C | 81% | 1036 hPa | 0 mm | - | - | - |
| 1777677494 | 8.89° C | 80% | 1036.1 hPa | 0 mm | - | - | - |
| 1777676595 | 8.89° C | 79% | 1036.1 hPa | 0 mm | - | - | - |
| 1777675694 | 9.44° C | 78% | 1036 hPa | 0 mm | - | - | - |
| 1777674795 | 9.44° C | 77% | 1036.2 hPa | 0 mm | - | - | - |
| 1777673896 | 10° C | 76% | 1036.2 hPa | 0 mm | - | - | - |
| 1777672995 | 10° C | 75% | 1036.5 hPa | 0 mm | - | - | - |
| 1777672094 | 10° C | 76% | 1036.4 hPa | 0 mm | - | - | - |
| 1777671195 | 10.56° C | 74% | 1036.4 hPa | 0 mm | - | - | - |
| 1777670294 | 11.11° C | 73% | 1036.3 hPa | 0 mm | - | - | - |
| 1777669395 | 11.67° C | 71% | 1036.5 hPa | 0 mm | - | - | - |
| 1777668495 | 11.67° C | 69% | 1036.3 hPa | 0 mm | - | - | - |
| 1777667594 | 11.67° C | 71% | 1036.3 hPa | 0 mm | - | - | - |
| 1777666695 | 11.67° C | 74% | 1036.5 hPa | 0 mm | - | - | - |
| 1777665795 | 11.67° C | 73% | 1036.6 hPa | 0 mm | - | - | - |
| 1777664894 | 12.22° C | 71% | 1036.5 hPa | 0 mm | - | - | - |
* Rain latest 24 hours (hover to see other rain measurements)
** Current wind speed in m/s (hover to see current wind gust speed)